sensor_id;sensor_type;location;lat;lon;timestamp;P1;durP1;ratioP1;P2;durP2;ratioP2
13564;SDS011;6854;48.096;11.278;2023-01-20T00:02:19;5.93;;;2.40;;
13564;SDS011;6854;48.096;11.278;2023-01-20T00:08:29;4.77;;;2.53;;
13564;SDS011;6854;48.096;11.278;2023-01-20T00:11:42;5.70;;;2.33;;
13564;SDS011;6854;48.096;11.278;2023-01-20T00:15:06;6.30;;;2.80;;
13564;SDS011;6854;48.096;11.278;2023-01-20T00:24:03;10.93;;;4.30;;
13564;SDS011;6854;48.096;11.278;2023-01-20T00:27:08;5.73;;;2.90;;
13564;SDS011;6854;48.096;11.278;2023-01-20T00:30:16;7.97;;;2.50;;
13564;SDS011;6854;48.096;11.278;2023-01-20T00:32:45;9.40;;;2.07;;
13564;SDS011;6854;48.096;11.278;2023-01-20T00:35:14;8.33;;;2.70;;
13564;SDS011;6854;48.096;11.278;2023-01-20T00:41:16;7.80;;;2.73;;
13564;SDS011;6854;48.096;11.278;2023-01-20T00:43:43;10.40;;;2.53;;
13564;SDS011;6854;48.096;11.278;2023-01-20T00:46:16;5.97;;;2.53;;
13564;SDS011;6854;48.096;11.278;2023-01-20T00:52:22;4.30;;;2.33;;
13564;SDS011;6854;48.096;11.278;2023-01-20T00:55:51;8.37;;;3.07;;
13564;SDS011;6854;48.096;11.278;2023-01-20T00:59:03;11.97;;;3.57;;
13564;SDS011;6854;48.096;11.278;2023-01-20T01:05:29;6.80;;;2.80;;
13564;SDS011;6854;48.096;11.278;2023-01-20T01:08:46;6.93;;;2.50;;
13564;SDS011;6854;48.096;11.278;2023-01-20T01:11:49;4.50;;;2.10;;
13564;SDS011;6854;48.096;11.278;2023-01-20T01:15:03;3.17;;;2.03;;
13564;SDS011;6854;48.096;11.278;2023-01-20T01:17:29;5.67;;;2.83;;
13564;SDS011;6854;48.096;11.278;2023-01-20T01:20:35;6.47;;;2.90;;
13564;SDS011;6854;48.096;11.278;2023-01-20T01:23:44;6.43;;;2.13;;
13564;SDS011;6854;48.096;11.278;2023-01-20T01:26:41;5.13;;;2.30;;
13564;SDS011;6854;48.096;11.278;2023-01-20T01:29:55;4.00;;;1.90;;
13564;SDS011;6854;48.096;11.278;2023-01-20T01:32:40;4.60;;;2.40;;
13564;SDS011;6854;48.096;11.278;2023-01-20T01:35:54;3.83;;;1.70;;
13564;SDS011;6854;48.096;11.278;2023-01-20T01:54:24;8.40;;;2.67;;
13564;SDS011;6854;48.096;11.278;2023-01-20T02:00:41;6.43;;;3.10;;
13564;SDS011;6854;48.096;11.278;2023-01-20T02:03:28;7.00;;;3.10;;
13564;SDS011;6854;48.096;11.278;2023-01-20T02:50:00;9.40;;;3.50;;
13564;SDS011;6854;48.096;11.278;2023-01-20T02:53:19;5.87;;;2.70;;
13564;SDS011;6854;48.096;11.278;2023-01-20T02:56:35;6.23;;;3.33;;
13564;SDS011;6854;48.096;11.278;2023-01-20T03:02:49;9.33;;;3.43;;
13564;SDS011;6854;48.096;11.278;2023-01-20T03:05:29;8.00;;;3.23;;
13564;SDS011;6854;48.096;11.278;2023-01-20T03:11:49;18.57;;;4.00;;
13564;SDS011;6854;48.096;11.278;2023-01-20T03:14:49;6.20;;;2.77;;
13564;SDS011;6854;48.096;11.278;2023-01-20T03:24:09;14.97;;;4.50;;
13564;SDS011;6854;48.096;11.278;2023-01-20T03:27:17;5.30;;;2.93;;
13564;SDS011;6854;48.096;11.278;2023-01-20T03:30:12;15.17;;;3.40;;
13564;SDS011;6854;48.096;11.278;2023-01-20T03:32:49;7.30;;;3.57;;
13564;SDS011;6854;48.096;11.278;2023-01-20T03:35:42;9.20;;;3.77;;
13564;SDS011;6854;48.096;11.278;2023-01-20T03:47:56;8.83;;;3.47;;
13564;SDS011;6854;48.096;11.278;2023-01-20T03:57:56;10.60;;;4.27;;
13564;SDS011;6854;48.096;11.278;2023-01-20T04:00:07;8.10;;;3.80;;
13564;SDS011;6854;48.096;11.278;2023-01-20T04:02:34;15.90;;;4.63;;
13564;SDS011;6854;48.096;11.278;2023-01-20T04:05:01;8.40;;;3.90;;
13564;SDS011;6854;48.096;11.278;2023-01-20T04:07:28;8.17;;;3.10;;
13564;SDS011;6854;48.096;11.278;2023-01-20T04:09:57;9.90;;;4.70;;
13564;SDS011;6854;48.096;11.278;2023-01-20T04:12:25;6.83;;;2.90;;
13564;SDS011;6854;48.096;11.278;2023-01-20T04:14:51;7.23;;;2.87;;
13564;SDS011;6854;48.096;11.278;2023-01-20T04:17:17;8.73;;;3.47;;
13564;SDS011;6854;48.096;11.278;2023-01-20T04:19:43;9.07;;;3.90;;
13564;SDS011;6854;48.096;11.278;2023-01-20T04:22:20;7.60;;;3.30;;
13564;SDS011;6854;48.096;11.278;2023-01-20T04:24:51;8.80;;;3.70;;
13564;SDS011;6854;48.096;11.278;2023-01-20T04:27:18;7.60;;;3.70;;
13564;SDS011;6854;48.096;11.278;2023-01-20T04:29:44;8.27;;;3.70;;
13564;SDS011;6854;48.096;11.278;2023-01-20T04:32:10;10.83;;;4.13;;
13564;SDS011;6854;48.096;11.278;2023-01-20T04:34:36;6.77;;;3.77;;
13564;SDS011;6854;48.096;11.278;2023-01-20T04:37:02;6.70;;;3.70;;
13564;SDS011;6854;48.096;11.278;2023-01-20T04:39:28;8.53;;;3.97;;
13564;SDS011;6854;48.096;11.278;2023-01-20T04:41:54;5.30;;;3.00;;
13564;SDS011;6854;48.096;11.278;2023-01-20T04:44:20;9.80;;;3.23;;
13564;SDS011;6854;48.096;11.278;2023-01-20T04:46:46;12.40;;;3.93;;
13564;SDS011;6854;48.096;11.278;2023-01-20T04:49:13;8.37;;;3.13;;
13564;SDS011;6854;48.096;11.278;2023-01-20T04:51:39;8.83;;;3.30;;
13564;SDS011;6854;48.096;11.278;2023-01-20T04:54:05;8.50;;;3.77;;
13564;SDS011;6854;48.096;11.278;2023-01-20T04:56:31;8.93;;;3.97;;
13564;SDS011;6854;48.096;11.278;2023-01-20T04:58:58;4.60;;;2.70;;
13564;SDS011;6854;48.096;11.278;2023-01-20T05:01:24;6.57;;;2.80;;
13564;SDS011;6854;48.096;11.278;2023-01-20T05:03:50;10.07;;;3.30;;
13564;SDS011;6854;48.096;11.278;2023-01-20T05:06:16;19.77;;;4.00;;
13564;SDS011;6854;48.096;11.278;2023-01-20T05:08:42;7.80;;;3.40;;
13564;SDS011;6854;48.096;11.278;2023-01-20T05:11:09;7.83;;;3.30;;
13564;SDS011;6854;48.096;11.278;2023-01-20T05:13:35;11.17;;;4.60;;
13564;SDS011;6854;48.096;11.278;2023-01-20T05:16:06;7.60;;;3.70;;
13564;SDS011;6854;48.096;11.278;2023-01-20T05:18:32;7.73;;;2.60;;
13564;SDS011;6854;48.096;11.278;2023-01-20T05:20:58;10.47;;;3.80;;
13564;SDS011;6854;48.096;11.278;2023-01-20T05:23:25;4.97;;;2.80;;
13564;SDS011;6854;48.096;11.278;2023-01-20T05:25:51;9.43;;;3.43;;
13564;SDS011;6854;48.096;11.278;2023-01-20T05:28:18;5.63;;;3.50;;
13564;SDS011;6854;48.096;11.278;2023-01-20T05:30:44;6.57;;;3.40;;
13564;SDS011;6854;48.096;11.278;2023-01-20T05:33:10;4.03;;;2.70;;
13564;SDS011;6854;48.096;11.278;2023-01-20T05:35:37;6.63;;;2.53;;
13564;SDS011;6854;48.096;11.278;2023-01-20T05:38:03;6.57;;;2.97;;
13564;SDS011;6854;48.096;11.278;2023-01-20T05:40:29;4.07;;;2.07;;
13564;SDS011;6854;48.096;11.278;2023-01-20T05:43:01;4.20;;;1.43;;
13564;SDS011;6854;48.096;11.278;2023-01-20T05:45:27;2.47;;;1.30;;
13564;SDS011;6854;48.096;11.278;2023-01-20T05:47:57;3.00;;;1.80;;
13564;SDS011;6854;48.096;11.278;2023-01-20T05:50:23;6.97;;;2.87;;
13564;SDS011;6854;48.096;11.278;2023-01-20T05:52:50;11.93;;;3.50;;
13564;SDS011;6854;48.096;11.278;2023-01-20T05:55:16;6.00;;;2.30;;
13564;SDS011;6854;48.096;11.278;2023-01-20T05:57:42;6.03;;;2.77;;
13564;SDS011;6854;48.096;11.278;2023-01-20T06:00:08;6.10;;;2.97;;
13564;SDS011;6854;48.096;11.278;2023-01-20T06:02:35;5.80;;;3.03;;
13564;SDS011;6854;48.096;11.278;2023-01-20T06:05:01;9.73;;;3.17;;
13564;SDS011;6854;48.096;11.278;2023-01-20T06:07:27;8.60;;;3.20;;
13564;SDS011;6854;48.096;11.278;2023-01-20T06:09:54;9.40;;;3.77;;
13564;SDS011;6854;48.096;11.278;2023-01-20T06:12:20;7.80;;;3.40;;
13564;SDS011;6854;48.096;11.278;2023-01-20T06:14:46;9.90;;;4.80;;
13564;SDS011;6854;48.096;11.278;2023-01-20T06:17:12;9.17;;;3.30;;
13564;SDS011;6854;48.096;11.278;2023-01-20T06:19:38;13.37;;;3.70;;
13564;SDS011;6854;48.096;11.278;2023-01-20T06:22:06;11.77;;;4.37;;
13564;SDS011;6854;48.096;11.278;2023-01-20T06:24:32;12.57;;;5.10;;
13564;SDS011;6854;48.096;11.278;2023-01-20T06:26:58;7.97;;;3.20;;
13564;SDS011;6854;48.096;11.278;2023-01-20T06:29:24;9.83;;;5.03;;
13564;SDS011;6854;48.096;11.278;2023-01-20T06:31:50;11.33;;;5.03;;
13564;SDS011;6854;48.096;11.278;2023-01-20T06:34:16;11.20;;;4.90;;
13564;SDS011;6854;48.096;11.278;2023-01-20T06:36:41;9.27;;;4.33;;
13564;SDS011;6854;48.096;11.278;2023-01-20T06:39:07;9.37;;;4.47;;
13564;SDS011;6854;48.096;11.278;2023-01-20T06:41:33;8.53;;;3.33;;
13564;SDS011;6854;48.096;11.278;2023-01-20T06:44:00;6.67;;;3.63;;
13564;SDS011;6854;48.096;11.278;2023-01-20T06:46:26;16.63;;;5.77;;
13564;SDS011;6854;48.096;11.278;2023-01-20T06:48:52;12.53;;;4.93;;
13564;SDS011;6854;48.096;11.278;2023-01-20T06:51:24;10.47;;;5.40;;
13564;SDS011;6854;48.096;11.278;2023-01-20T06:53:50;16.37;;;4.33;;
13564;SDS011;6854;48.096;11.278;2023-01-20T06:56:16;7.53;;;3.53;;
13564;SDS011;6854;48.096;11.278;2023-01-20T06:58:42;10.47;;;4.20;;
13564;SDS011;6854;48.096;11.278;2023-01-20T07:01:09;15.00;;;7.20;;
13564;SDS011;6854;48.096;11.278;2023-01-20T07:03:36;19.00;;;5.37;;
13564;SDS011;6854;48.096;11.278;2023-01-20T07:06:15;7.50;;;3.40;;
13564;SDS011;6854;48.096;11.278;2023-01-20T07:08:42;16.07;;;5.70;;
13564;SDS011;6854;48.096;11.278;2023-01-20T07:11:08;20.63;;;5.47;;
13564;SDS011;6854;48.096;11.278;2023-01-20T07:13:34;14.17;;;4.67;;
13564;SDS011;6854;48.096;11.278;2023-01-20T07:16:00;9.87;;;4.87;;
13564;SDS011;6854;48.096;11.278;2023-01-20T07:18:26;8.70;;;4.40;;
13564;SDS011;6854;48.096;11.278;2023-01-20T07:20:53;11.90;;;5.17;;
13564;SDS011;6854;48.096;11.278;2023-01-20T07:23:19;12.90;;;6.23;;
13564;SDS011;6854;48.096;11.278;2023-01-20T07:25:45;7.80;;;4.23;;
13564;SDS011;6854;48.096;11.278;2023-01-20T07:28:11;20.00;;;8.10;;
13564;SDS011;6854;48.096;11.278;2023-01-20T07:30:37;11.33;;;5.57;;
13564;SDS011;6854;48.096;11.278;2023-01-20T07:33:03;13.77;;;5.90;;
13564;SDS011;6854;48.096;11.278;2023-01-20T07:35:29;23.13;;;6.70;;
13564;SDS011;6854;48.096;11.278;2023-01-20T07:37:56;9.30;;;4.70;;
13564;SDS011;6854;48.096;11.278;2023-01-20T07:40:22;13.43;;;5.00;;
13564;SDS011;6854;48.096;11.278;2023-01-20T07:42:48;14.20;;;4.60;;
13564;SDS011;6854;48.096;11.278;2023-01-20T07:45:14;13.47;;;4.23;;
13564;SDS011;6854;48.096;11.278;2023-01-20T07:47:40;16.80;;;5.80;;
13564;SDS011;6854;48.096;11.278;2023-01-20T07:50:07;12.23;;;5.93;;
13564;SDS011;6854;48.096;11.278;2023-01-20T07:52:33;6.37;;;2.73;;
13564;SDS011;6854;48.096;11.278;2023-01-20T07:54:59;26.40;;;4.60;;
13564;SDS011;6854;48.096;11.278;2023-01-20T07:57:25;11.47;;;3.93;;
13564;SDS011;6854;48.096;11.278;2023-01-20T07:59:54;8.87;;;3.53;;
13564;SDS011;6854;48.096;11.278;2023-01-20T08:02:19;7.00;;;3.00;;
13564;SDS011;6854;48.096;11.278;2023-01-20T08:04:45;15.37;;;6.80;;
13564;SDS011;6854;48.096;11.278;2023-01-20T08:07:11;16.33;;;6.30;;
13564;SDS011;6854;48.096;11.278;2023-01-20T08:09:37;10.57;;;4.00;;
13564;SDS011;6854;48.096;11.278;2023-01-20T08:12:05;13.27;;;5.97;;
13564;SDS011;6854;48.096;11.278;2023-01-20T08:14:31;4.53;;;2.63;;
13564;SDS011;6854;48.096;11.278;2023-01-20T08:16:57;8.87;;;3.77;;
13564;SDS011;6854;48.096;11.278;2023-01-20T08:19:27;11.77;;;4.37;;
13564;SDS011;6854;48.096;11.278;2023-01-20T08:21:53;7.67;;;2.67;;
13564;SDS011;6854;48.096;11.278;2023-01-20T08:24:19;8.67;;;3.53;;
13564;SDS011;6854;48.096;11.278;2023-01-20T08:26:45;6.87;;;3.80;;
13564;SDS011;6854;48.096;11.278;2023-01-20T08:29:11;8.70;;;3.77;;
13564;SDS011;6854;48.096;11.278;2023-01-20T08:31:37;24.43;;;5.17;;
13564;SDS011;6854;48.096;11.278;2023-01-20T08:34:04;4.73;;;2.00;;
13564;SDS011;6854;48.096;11.278;2023-01-20T08:36:31;7.17;;;3.50;;
13564;SDS011;6854;48.096;11.278;2023-01-20T08:38:57;2.90;;;1.17;;
13564;SDS011;6854;48.096;11.278;2023-01-20T08:41:26;5.57;;;2.13;;
13564;SDS011;6854;48.096;11.278;2023-01-20T08:43:52;3.97;;;1.97;;
13564;SDS011;6854;48.096;11.278;2023-01-20T08:46:19;9.93;;;4.40;;
13564;SDS011;6854;48.096;11.278;2023-01-20T08:48:45;7.67;;;4.20;;
13564;SDS011;6854;48.096;11.278;2023-01-20T08:51:19;12.13;;;2.50;;
13564;SDS011;6854;48.096;11.278;2023-01-20T08:53:45;6.90;;;3.90;;
13564;SDS011;6854;48.096;11.278;2023-01-20T08:56:11;4.90;;;2.13;;
13564;SDS011;6854;48.096;11.278;2023-01-20T08:58:37;3.97;;;2.07;;
13564;SDS011;6854;48.096;11.278;2023-01-20T09:01:07;10.87;;;3.40;;
13564;SDS011;6854;48.096;11.278;2023-01-20T09:03:33;2.93;;;1.53;;
13564;SDS011;6854;48.096;11.278;2023-01-20T09:06:00;6.60;;;4.03;;
13564;SDS011;6854;48.096;11.278;2023-01-20T09:08:27;3.17;;;1.40;;
13564;SDS011;6854;48.096;11.278;2023-01-20T09:10:53;5.33;;;2.53;;
13564;SDS011;6854;48.096;11.278;2023-01-20T09:13:21;8.67;;;3.60;;
13564;SDS011;6854;48.096;11.278;2023-01-20T09:15:51;3.40;;;1.70;;
13564;SDS011;6854;48.096;11.278;2023-01-20T09:18:17;4.20;;;2.17;;
13564;SDS011;6854;48.096;11.278;2023-01-20T09:20:43;2.60;;;2.00;;
13564;SDS011;6854;48.096;11.278;2023-01-20T09:23:09;10.27;;;3.90;;
13564;SDS011;6854;48.096;11.278;2023-01-20T09:25:35;7.67;;;3.87;;
13564;SDS011;6854;48.096;11.278;2023-01-20T09:28:01;7.83;;;3.63;;
13564;SDS011;6854;48.096;11.278;2023-01-20T09:30:27;11.60;;;3.57;;
13564;SDS011;6854;48.096;11.278;2023-01-20T09:32:53;5.60;;;2.33;;
13564;SDS011;6854;48.096;11.278;2023-01-20T09:35:21;6.57;;;2.73;;
13564;SDS011;6854;48.096;11.278;2023-01-20T09:37:47;9.00;;;3.97;;
13564;SDS011;6854;48.096;11.278;2023-01-20T09:40:43;10.93;;;3.17;;
13564;SDS011;6854;48.096;11.278;2023-01-20T09:43:36;4.40;;;2.33;;
13564;SDS011;6854;48.096;11.278;2023-01-20T09:46:38;10.33;;;1.60;;
13564;SDS011;6854;48.096;11.278;2023-01-20T09:49:23;5.77;;;1.73;;
13564;SDS011;6854;48.096;11.278;2023-01-20T09:58:04;3.60;;;2.10;;
13564;SDS011;6854;48.096;11.278;2023-01-20T10:00:31;6.57;;;2.57;;
13564;SDS011;6854;48.096;11.278;2023-01-20T10:03:00;2.40;;;1.70;;
13564;SDS011;6854;48.096;11.278;2023-01-20T10:05:29;2.00;;;1.67;;
13564;SDS011;6854;48.096;11.278;2023-01-20T10:08:31;5.17;;;1.77;;
13564;SDS011;6854;48.096;11.278;2023-01-20T10:10:56;2.37;;;1.73;;
13564;SDS011;6854;48.096;11.278;2023-01-20T10:13:26;5.13;;;2.70;;
13564;SDS011;6854;48.096;11.278;2023-01-20T10:15:56;2.93;;;1.87;;
13564;SDS011;6854;48.096;11.278;2023-01-20T10:18:29;6.93;;;3.00;;
13564;SDS011;6854;48.096;11.278;2023-01-20T10:21:10;6.73;;;2.70;;
13564;SDS011;6854;48.096;11.278;2023-01-20T10:23:41;6.70;;;2.80;;
13564;SDS011;6854;48.096;11.278;2023-01-20T10:26:14;3.60;;;2.00;;
13564;SDS011;6854;48.096;11.278;2023-01-20T10:28:44;7.63;;;2.90;;
13564;SDS011;6854;48.096;11.278;2023-01-20T10:31:11;2.43;;;1.37;;
13564;SDS011;6854;48.096;11.278;2023-01-20T10:33:39;3.70;;;1.60;;
13564;SDS011;6854;48.096;11.278;2023-01-20T10:36:09;1.83;;;1.57;;
13564;SDS011;6854;48.096;11.278;2023-01-20T10:38:46;4.07;;;2.07;;
13564;SDS011;6854;48.096;11.278;2023-01-20T10:41:27;3.13;;;2.20;;
13564;SDS011;6854;48.096;11.278;2023-01-20T10:43:56;0.90;;;0.67;;
13564;SDS011;6854;48.096;11.278;2023-01-20T10:46:37;5.77;;;2.10;;
13564;SDS011;6854;48.096;11.278;2023-01-20T10:51:47;3.27;;;2.47;;
13564;SDS011;6854;48.096;11.278;2023-01-20T10:54:22;7.80;;;2.73;;
13564;SDS011;6854;48.096;11.278;2023-01-20T10:56:52;3.20;;;1.20;;
13564;SDS011;6854;48.096;11.278;2023-01-20T10:59:26;8.77;;;2.63;;
13564;SDS011;6854;48.096;11.278;2023-01-20T11:01:52;6.93;;;2.90;;
13564;SDS011;6854;48.096;11.278;2023-01-20T11:04:20;7.53;;;3.17;;
13564;SDS011;6854;48.096;11.278;2023-01-20T11:06:47;1.90;;;1.17;;
13564;SDS011;6854;48.096;11.278;2023-01-20T11:09:18;3.70;;;2.60;;
13564;SDS011;6854;48.096;11.278;2023-01-20T11:11:45;3.87;;;2.00;;
13564;SDS011;6854;48.096;11.278;2023-01-20T11:14:12;7.97;;;3.10;;
13564;SDS011;6854;48.096;11.278;2023-01-20T11:16:38;5.30;;;2.43;;
13564;SDS011;6854;48.096;11.278;2023-01-20T11:19:06;5.93;;;3.07;;
13564;SDS011;6854;48.096;11.278;2023-01-20T11:21:32;5.70;;;3.10;;
13564;SDS011;6854;48.096;11.278;2023-01-20T11:24:00;5.30;;;1.47;;
13564;SDS011;6854;48.096;11.278;2023-01-20T11:29:00;8.90;;;4.67;;
13564;SDS011;6854;48.096;11.278;2023-01-20T11:31:40;10.67;;;4.27;;
13564;SDS011;6854;48.096;11.278;2023-01-20T11:36:44;6.13;;;3.73;;
13564;SDS011;6854;48.096;11.278;2023-01-20T11:39:24;11.10;;;5.10;;
13564;SDS011;6854;48.096;11.278;2023-01-20T11:42:08;10.90;;;4.20;;
13564;SDS011;6854;48.096;11.278;2023-01-20T11:44:42;12.93;;;4.80;;
13564;SDS011;6854;48.096;11.278;2023-01-20T11:52:37;6.23;;;2.80;;
13564;SDS011;6854;48.096;11.278;2023-01-20T11:55:08;10.27;;;5.47;;
13564;SDS011;6854;48.096;11.278;2023-01-20T11:57:36;13.70;;;5.70;;
13564;SDS011;6854;48.096;11.278;2023-01-20T12:00:02;10.13;;;5.20;;
13564;SDS011;6854;48.096;11.278;2023-01-20T12:02:28;11.07;;;5.63;;
13564;SDS011;6854;48.096;11.278;2023-01-20T12:09:54;12.90;;;6.77;;
13564;SDS011;6854;48.096;11.278;2023-01-20T12:12:27;10.60;;;5.37;;
13564;SDS011;6854;48.096;11.278;2023-01-20T12:17:32;14.03;;;6.63;;
13564;SDS011;6854;48.096;11.278;2023-01-20T12:20:04;14.40;;;6.03;;
13564;SDS011;6854;48.096;11.278;2023-01-20T12:22:38;6.43;;;3.63;;
13564;SDS011;6854;48.096;11.278;2023-01-20T12:25:14;11.63;;;5.50;;
13564;SDS011;6854;48.096;11.278;2023-01-20T12:30:15;14.60;;;5.90;;
13564;SDS011;6854;48.096;11.278;2023-01-20T12:32:43;12.87;;;5.07;;
13564;SDS011;6854;48.096;11.278;2023-01-20T12:35:12;13.60;;;6.27;;
13564;SDS011;6854;48.096;11.278;2023-01-20T12:37:43;6.13;;;3.67;;
13564;SDS011;6854;48.096;11.278;2023-01-20T12:40:25;6.73;;;2.87;;
13564;SDS011;6854;48.096;11.278;2023-01-20T12:50:50;13.30;;;6.00;;
13564;SDS011;6854;48.096;11.278;2023-01-20T12:54:09;8.30;;;4.20;;
13564;SDS011;6854;48.096;11.278;2023-01-20T13:01:01;17.47;;;6.90;;
13564;SDS011;6854;48.096;11.278;2023-01-20T13:03:44;12.67;;;6.70;;
13564;SDS011;6854;48.096;11.278;2023-01-20T13:08:48;5.97;;;4.00;;
13564;SDS011;6854;48.096;11.278;2023-01-20T13:16:16;7.67;;;4.57;;
13564;SDS011;6854;48.096;11.278;2023-01-20T13:21:12;11.73;;;6.17;;
13564;SDS011;6854;48.096;11.278;2023-01-20T13:23:45;10.23;;;5.53;;
13564;SDS011;6854;48.096;11.278;2023-01-20T13:26:11;14.90;;;7.47;;
13564;SDS011;6854;48.096;11.278;2023-01-20T13:28:38;14.80;;;6.47;;
13564;SDS011;6854;48.096;11.278;2023-01-20T13:47:54;24.57;;;9.10;;
13564;SDS011;6854;48.096;11.278;2023-01-20T13:50:31;10.97;;;4.07;;
13564;SDS011;6854;48.096;11.278;2023-01-20T13:53:05;51.50;;;4.03;;
13564;SDS011;6854;48.096;11.278;2023-01-20T13:58:11;12.80;;;5.40;;
13564;SDS011;6854;48.096;11.278;2023-01-20T14:00:37;16.50;;;6.40;;
13564;SDS011;6854;48.096;11.278;2023-01-20T14:05:48;17.43;;;7.23;;
13564;SDS011;6854;48.096;11.278;2023-01-20T14:08:15;22.50;;;10.47;;
13564;SDS011;6854;48.096;11.278;2023-01-20T14:10:41;15.93;;;7.87;;
13564;SDS011;6854;48.096;11.278;2023-01-20T14:13:08;7.53;;;4.00;;
13564;SDS011;6854;48.096;11.278;2023-01-20T14:15:35;20.27;;;8.17;;
13564;SDS011;6854;48.096;11.278;2023-01-20T14:18:02;7.67;;;4.13;;
13564;SDS011;6854;48.096;11.278;2023-01-20T14:20:29;20.80;;;9.53;;
13564;SDS011;6854;48.096;11.278;2023-01-20T14:23:14;9.50;;;3.93;;
13564;SDS011;6854;48.096;11.278;2023-01-20T14:25:40;4.87;;;3.27;;
13564;SDS011;6854;48.096;11.278;2023-01-20T14:28:16;21.43;;;7.93;;
13564;SDS011;6854;48.096;11.278;2023-01-20T14:30:43;22.53;;;8.40;;
13564;SDS011;6854;48.096;11.278;2023-01-20T14:33:09;12.10;;;3.60;;
13564;SDS011;6854;48.096;11.278;2023-01-20T14:35:40;14.43;;;6.87;;
13564;SDS011;6854;48.096;11.278;2023-01-20T14:38:17;20.43;;;7.87;;
13564;SDS011;6854;48.096;11.278;2023-01-20T14:40:43;12.20;;;6.23;;
13564;SDS011;6854;48.096;11.278;2023-01-20T14:43:19;12.70;;;6.53;;
13564;SDS011;6854;48.096;11.278;2023-01-20T14:45:46;17.37;;;6.03;;
13564;SDS011;6854;48.096;11.278;2023-01-20T14:48:13;11.83;;;4.77;;
13564;SDS011;6854;48.096;11.278;2023-01-20T14:50:39;10.93;;;5.70;;
13564;SDS011;6854;48.096;11.278;2023-01-20T14:53:10;25.93;;;7.00;;
13564;SDS011;6854;48.096;11.278;2023-01-20T14:55:37;18.73;;;7.03;;
13564;SDS011;6854;48.096;11.278;2023-01-20T14:58:16;21.10;;;10.00;;
13564;SDS011;6854;48.096;11.278;2023-01-20T15:00:45;18.67;;;6.40;;
13564;SDS011;6854;48.096;11.278;2023-01-20T15:03:14;12.07;;;5.03;;
13564;SDS011;6854;48.096;11.278;2023-01-20T15:05:58;12.03;;;4.90;;
13564;SDS011;6854;48.096;11.278;2023-01-20T15:11:10;14.60;;;6.10;;
13564;SDS011;6854;48.096;11.278;2023-01-20T15:13:37;14.03;;;5.70;;
13564;SDS011;6854;48.096;11.278;2023-01-20T15:18:38;22.07;;;8.00;;
13564;SDS011;6854;48.096;11.278;2023-01-20T15:23:49;23.30;;;9.83;;
13564;SDS011;6854;48.096;11.278;2023-01-20T15:26:24;19.30;;;7.80;;
13564;SDS011;6854;48.096;11.278;2023-01-20T15:28:51;19.43;;;6.00;;
13564;SDS011;6854;48.096;11.278;2023-01-20T15:31:17;9.83;;;5.50;;
13564;SDS011;6854;48.096;11.278;2023-01-20T15:33:43;25.43;;;8.37;;
13564;SDS011;6854;48.096;11.278;2023-01-20T15:38:41;21.73;;;7.67;;
13564;SDS011;6854;48.096;11.278;2023-01-20T15:41:09;17.33;;;5.93;;
13564;SDS011;6854;48.096;11.278;2023-01-20T15:43:36;17.13;;;7.50;;
13564;SDS011;6854;48.096;11.278;2023-01-20T15:46:07;17.77;;;7.30;;
13564;SDS011;6854;48.096;11.278;2023-01-20T15:48:33;14.87;;;7.53;;
13564;SDS011;6854;48.096;11.278;2023-01-20T15:50:59;22.73;;;8.70;;
13564;SDS011;6854;48.096;11.278;2023-01-20T15:53:25;21.37;;;9.37;;
13564;SDS011;6854;48.096;11.278;2023-01-20T15:55:51;17.67;;;7.87;;
13564;SDS011;6854;48.096;11.278;2023-01-20T15:58:21;18.47;;;6.60;;
13564;SDS011;6854;48.096;11.278;2023-01-20T16:00:48;27.17;;;10.30;;
13564;SDS011;6854;48.096;11.278;2023-01-20T16:03:14;14.70;;;5.87;;
13564;SDS011;6854;48.096;11.278;2023-01-20T16:05:40;17.47;;;7.60;;
13564;SDS011;6854;48.096;11.278;2023-01-20T16:08:13;15.50;;;6.90;;
13564;SDS011;6854;48.096;11.278;2023-01-20T16:10:39;20.40;;;7.23;;
13564;SDS011;6854;48.096;11.278;2023-01-20T16:13:07;16.63;;;8.43;;
13564;SDS011;6854;48.096;11.278;2023-01-20T16:15:33;23.97;;;7.17;;
13564;SDS011;6854;48.096;11.278;2023-01-20T16:17:59;16.87;;;7.83;;
13564;SDS011;6854;48.096;11.278;2023-01-20T16:20:25;12.07;;;5.53;;
13564;SDS011;6854;48.096;11.278;2023-01-20T16:22:51;18.37;;;8.40;;
13564;SDS011;6854;48.096;11.278;2023-01-20T16:25:18;16.67;;;8.30;;
13564;SDS011;6854;48.096;11.278;2023-01-20T16:27:45;22.07;;;7.63;;
13564;SDS011;6854;48.096;11.278;2023-01-20T16:30:20;20.90;;;8.10;;
13564;SDS011;6854;48.096;11.278;2023-01-20T16:32:46;20.90;;;7.90;;
13564;SDS011;6854;48.096;11.278;2023-01-20T16:35:13;20.27;;;8.10;;
13564;SDS011;6854;48.096;11.278;2023-01-20T16:37:39;25.03;;;7.80;;
13564;SDS011;6854;48.096;11.278;2023-01-20T16:40:06;18.23;;;7.00;;
13564;SDS011;6854;48.096;11.278;2023-01-20T16:42:35;20.30;;;7.47;;
13564;SDS011;6854;48.096;11.278;2023-01-20T16:45:01;21.13;;;8.40;;
13564;SDS011;6854;48.096;11.278;2023-01-20T16:47:27;19.30;;;8.50;;
13564;SDS011;6854;48.096;11.278;2023-01-20T16:49:53;20.00;;;8.70;;
13564;SDS011;6854;48.096;11.278;2023-01-20T16:52:19;28.40;;;9.70;;
13564;SDS011;6854;48.096;11.278;2023-01-20T16:54:45;21.67;;;9.90;;
13564;SDS011;6854;48.096;11.278;2023-01-20T16:57:11;22.10;;;9.40;;
13564;SDS011;6854;48.096;11.278;2023-01-20T16:59:37;26.67;;;9.57;;
13564;SDS011;6854;48.096;11.278;2023-01-20T17:02:03;26.07;;;10.70;;
13564;SDS011;6854;48.096;11.278;2023-01-20T17:04:29;26.37;;;10.50;;
13564;SDS011;6854;48.096;11.278;2023-01-20T17:06:55;19.87;;;9.80;;
13564;SDS011;6854;48.096;11.278;2023-01-20T17:09:21;25.97;;;9.57;;
13564;SDS011;6854;48.096;11.278;2023-01-20T17:11:47;21.30;;;9.40;;
13564;SDS011;6854;48.096;11.278;2023-01-20T17:14:13;23.30;;;10.07;;
13564;SDS011;6854;48.096;11.278;2023-01-20T17:16:39;17.70;;;6.87;;
13564;SDS011;6854;48.096;11.278;2023-01-20T17:19:06;17.37;;;7.17;;
13564;SDS011;6854;48.096;11.278;2023-01-20T17:21:36;7.27;;;2.77;;
13564;SDS011;6854;48.096;11.278;2023-01-20T17:24:02;27.40;;;5.30;;
13564;SDS011;6854;48.096;11.278;2023-01-20T17:26:29;13.13;;;4.17;;
13564;SDS011;6854;48.096;11.278;2023-01-20T17:29:00;16.73;;;4.47;;
13564;SDS011;6854;48.096;11.278;2023-01-20T17:31:26;9.23;;;4.10;;
13564;SDS011;6854;48.096;11.278;2023-01-20T17:33:52;13.90;;;4.50;;
13564;SDS011;6854;48.096;11.278;2023-01-20T17:36:18;15.00;;;5.17;;
13564;SDS011;6854;48.096;11.278;2023-01-20T17:38:44;9.30;;;3.53;;
13564;SDS011;6854;48.096;11.278;2023-01-20T17:41:11;18.73;;;3.93;;
13564;SDS011;6854;48.096;11.278;2023-01-20T17:43:41;12.23;;;4.33;;
13564;SDS011;6854;48.096;11.278;2023-01-20T17:48:37;12.03;;;5.10;;
13564;SDS011;6854;48.096;11.278;2023-01-20T17:51:10;7.30;;;3.70;;
13564;SDS011;6854;48.096;11.278;2023-01-20T17:53:36;12.13;;;4.13;;
13564;SDS011;6854;48.096;11.278;2023-01-20T17:56:02;11.57;;;5.30;;
13564;SDS011;6854;48.096;11.278;2023-01-20T17:58:28;12.83;;;5.70;;
13564;SDS011;6854;48.096;11.278;2023-01-20T18:00:54;12.83;;;5.33;;
13564;SDS011;6854;48.096;11.278;2023-01-20T18:03:20;15.93;;;5.10;;
13564;SDS011;6854;48.096;11.278;2023-01-20T18:05:46;13.20;;;4.60;;
13564;SDS011;6854;48.096;11.278;2023-01-20T18:08:13;15.40;;;7.00;;
13564;SDS011;6854;48.096;11.278;2023-01-20T18:10:39;10.63;;;4.90;;
13564;SDS011;6854;48.096;11.278;2023-01-20T18:13:04;13.63;;;5.57;;
13564;SDS011;6854;48.096;11.278;2023-01-20T18:15:30;15.57;;;5.10;;
13564;SDS011;6854;48.096;11.278;2023-01-20T18:17:56;13.50;;;5.93;;
13564;SDS011;6854;48.096;11.278;2023-01-20T18:20:26;15.30;;;5.73;;
13564;SDS011;6854;48.096;11.278;2023-01-20T18:22:52;15.67;;;7.07;;
13564;SDS011;6854;48.096;11.278;2023-01-20T18:25:18;17.90;;;8.20;;
13564;SDS011;6854;48.096;11.278;2023-01-20T18:27:44;10.90;;;6.13;;